Ana Sayfa
METAR-TAF:

METAR-TAF

Havaalanları :

Lancaster Airport

Lancaster, Pensilvanya, Amerika Birleşik Devletleri

Enlem: 40-07-13N, Boylam: 076-17-40W, yükseklik: 123 m

Güncel hava durumu gözlemi

Rapor saat 00:53 UTC de 1 saat ve 10 dakika önce yapıldı.
Sakin rüzgar
Sıcaklık 18°C
Nem 73%
Basınç 1015 hPa
Görüş mesafesi: 16.1 km
Açık gökyüzü

METAR: KLNS 070053Z 00000KT 10SM CLR 18/13 A2998 RMK AO2 SLP152 T01830128

Saat: 22:03 (02:03 UTC)

Tahmin

Rapor saat 23:24 UTC de 2 saat ve 39 dakika önce yapıldı.
Ayın 07'si saat 00 UTC'den ayın 07'si saat 24 UTC'ye kadar geçerli Tahmin
Rüzgar batı/kuzeybatıdan 5 kt
Görüş mesafesi: 10 km
Açık gökyüzü
Ayın 07'si saat 1100 UTC'den
Rüzgar batı/kuzeybatıdan 8 kt ve 15 kt'a kadar ani rüzgarlar
Görüş mesafesi: 10 km
10000 ft yükseklikte parçalı çok bulutlu

TAF: KLNS 062324Z 0700/0724 29005KT P6SM SKC FM071100 30008G15KT P6SM BKN100

4.000'den fazla havaalanı için hava durumu gözlemleri ve tahminleri (METAR ve TAF raporları).

Kullanılabilir istasyonlar harita üzerinde sarı ve kırmızı noktalarla gösterilir.

İstasyonun adını görmek için fareyi noktanın üzerinde gezdirin.

Sonrasında hava gözlem ve tahminlerini görmek için tıklayın.

Haritayı değiştirmek için: yaklaştırmak için siyah artı işaretli yeşil düğmeye ve uzaklaştırmak için de eksi işaretli düğmeye hızla tıklayın; bitişik haritalar için yeşil okları kullanın.


METAR-TAF: